< < Back
Terminal Aerodrome Forecast


Current Version              Previous Versions:   1  2  3  4  5  6  7  8  9  

Terminal Aerodrome Forecast

338
FTUS44 KMOB 192300
TAFPNS
TAF
KPNS 192320Z 2000/2024 00000KT P6SM SKC
     FM201900 15006KT P6SM SKC=



Latest METAR

093
SAUS70 KWBC 210400 RRC
MTRPNS
METAR KPNS 210353Z AUTO 01005KT 10SM CLR 18/11 A3000 RMK AO2 SLP162
T01830111


USA.gov is the U.S. government's official web portal to all federal, state and local government web resources and services.